sensor_id;sensor_type;location;lat;lon;timestamp;P1;durP1;ratioP1;P2;durP2;ratioP2
12228;SDS011;6177;52.402;9.800;2023-04-21T00:01:20;17.37;;;15.90;;
12228;SDS011;6177;52.402;9.800;2023-04-21T00:04:11;17.40;;;15.80;;
12228;SDS011;6177;52.402;9.800;2023-04-21T00:07:02;16.80;;;15.13;;
12228;SDS011;6177;52.402;9.800;2023-04-21T00:09:53;17.43;;;15.77;;
12228;SDS011;6177;52.402;9.800;2023-04-21T00:12:44;16.70;;;15.00;;
12228;SDS011;6177;52.402;9.800;2023-04-21T00:15:35;17.07;;;15.43;;
12228;SDS011;6177;52.402;9.800;2023-04-21T00:18:27;16.67;;;14.97;;
12228;SDS011;6177;52.402;9.800;2023-04-21T00:21:17;17.13;;;15.60;;
12228;SDS011;6177;52.402;9.800;2023-04-21T00:24:08;16.73;;;15.33;;
12228;SDS011;6177;52.402;9.800;2023-04-21T00:26:59;16.90;;;15.40;;
12228;SDS011;6177;52.402;9.800;2023-04-21T00:29:50;16.10;;;14.60;;
12228;SDS011;6177;52.402;9.800;2023-04-21T00:32:41;16.97;;;15.20;;
12228;SDS011;6177;52.402;9.800;2023-04-21T00:35:31;16.20;;;14.70;;
12228;SDS011;6177;52.402;9.800;2023-04-21T00:38:22;15.17;;;13.77;;
12228;SDS011;6177;52.402;9.800;2023-04-21T00:41:13;15.10;;;13.57;;
12228;SDS011;6177;52.402;9.800;2023-04-21T00:44:05;15.57;;;14.17;;
12228;SDS011;6177;52.402;9.800;2023-04-21T00:46:56;15.40;;;13.90;;
12228;SDS011;6177;52.402;9.800;2023-04-21T00:49:47;14.77;;;13.37;;
12228;SDS011;6177;52.402;9.800;2023-04-21T00:52:38;14.73;;;13.47;;
12228;SDS011;6177;52.402;9.800;2023-04-21T00:55:31;14.20;;;12.93;;
12228;SDS011;6177;52.402;9.800;2023-04-21T00:58:21;14.87;;;13.40;;
12228;SDS011;6177;52.402;9.800;2023-04-21T01:01:12;14.17;;;12.97;;
12228;SDS011;6177;52.402;9.800;2023-04-21T01:04:03;14.47;;;13.07;;
12228;SDS011;6177;52.402;9.800;2023-04-21T01:06:54;14.60;;;13.07;;
12228;SDS011;6177;52.402;9.800;2023-04-21T01:09:46;13.77;;;12.37;;
12228;SDS011;6177;52.402;9.800;2023-04-21T01:12:40;12.73;;;11.73;;
12228;SDS011;6177;52.402;9.800;2023-04-21T01:15:32;14.00;;;12.60;;
12228;SDS011;6177;52.402;9.800;2023-04-21T01:18:23;13.40;;;12.10;;
12228;SDS011;6177;52.402;9.800;2023-04-21T01:21:15;13.60;;;12.37;;
12228;SDS011;6177;52.402;9.800;2023-04-21T01:24:06;13.10;;;11.80;;
12228;SDS011;6177;52.402;9.800;2023-04-21T01:26:57;12.80;;;11.50;;
12228;SDS011;6177;52.402;9.800;2023-04-21T01:29:49;12.83;;;11.63;;
12228;SDS011;6177;52.402;9.800;2023-04-21T01:32:42;14.13;;;12.67;;
12228;SDS011;6177;52.402;9.800;2023-04-21T01:35:32;12.37;;;11.17;;
12228;SDS011;6177;52.402;9.800;2023-04-21T01:38:23;12.17;;;11.17;;
12228;SDS011;6177;52.402;9.800;2023-04-21T01:41:14;12.37;;;11.17;;
12228;SDS011;6177;52.402;9.800;2023-04-21T01:44:05;12.60;;;11.30;;
12228;SDS011;6177;52.402;9.800;2023-04-21T01:46:56;15.57;;;12.53;;
12228;SDS011;6177;52.402;9.800;2023-04-21T01:49:47;14.80;;;11.67;;
12228;SDS011;6177;52.402;9.800;2023-04-21T01:52:38;13.40;;;12.30;;
12228;SDS011;6177;52.402;9.800;2023-04-21T01:55:30;13.53;;;12.33;;
12228;SDS011;6177;52.402;9.800;2023-04-21T01:58:21;13.07;;;11.87;;
12228;SDS011;6177;52.402;9.800;2023-04-21T02:01:12;13.80;;;12.40;;
12228;SDS011;6177;52.402;9.800;2023-04-21T02:04:02;13.73;;;12.43;;
12228;SDS011;6177;52.402;9.800;2023-04-21T02:06:53;12.70;;;11.43;;
12228;SDS011;6177;52.402;9.800;2023-04-21T02:09:44;13.27;;;11.97;;
12228;SDS011;6177;52.402;9.800;2023-04-21T02:12:35;12.57;;;11.30;;
12228;SDS011;6177;52.402;9.800;2023-04-21T02:15:25;12.10;;;11.10;;
12228;SDS011;6177;52.402;9.800;2023-04-21T02:18:16;12.30;;;11.13;;
12228;SDS011;6177;52.402;9.800;2023-04-21T02:21:07;16.10;;;12.20;;
12228;SDS011;6177;52.402;9.800;2023-04-21T02:23:57;12.93;;;11.57;;
12228;SDS011;6177;52.402;9.800;2023-04-21T02:26:49;11.50;;;10.40;;
12228;SDS011;6177;52.402;9.800;2023-04-21T02:29:40;12.00;;;10.80;;
12228;SDS011;6177;52.402;9.800;2023-04-21T02:32:31;11.43;;;10.33;;
12228;SDS011;6177;52.402;9.800;2023-04-21T02:35:22;11.97;;;10.87;;
12228;SDS011;6177;52.402;9.800;2023-04-21T02:38:14;13.77;;;10.60;;
12228;SDS011;6177;52.402;9.800;2023-04-21T02:41:05;12.07;;;10.93;;
12228;SDS011;6177;52.402;9.800;2023-04-21T02:43:57;11.63;;;10.47;;
12228;SDS011;6177;52.402;9.800;2023-04-21T02:46:47;11.60;;;10.37;;
12228;SDS011;6177;52.402;9.800;2023-04-21T02:49:39;11.53;;;10.53;;
12228;SDS011;6177;52.402;9.800;2023-04-21T02:52:34;11.87;;;10.67;;
12228;SDS011;6177;52.402;9.800;2023-04-21T02:55:26;11.10;;;10.00;;
12228;SDS011;6177;52.402;9.800;2023-04-21T02:58:17;11.60;;;10.27;;
12228;SDS011;6177;52.402;9.800;2023-04-21T03:01:08;12.13;;;10.80;;
12228;SDS011;6177;52.402;9.800;2023-04-21T03:03:59;10.47;;;9.63;;
12228;SDS011;6177;52.402;9.800;2023-04-21T03:06:49;11.37;;;10.20;;
12228;SDS011;6177;52.402;9.800;2023-04-21T03:09:40;10.57;;;9.63;;
12228;SDS011;6177;52.402;9.800;2023-04-21T03:12:31;10.57;;;9.73;;
12228;SDS011;6177;52.402;9.800;2023-04-21T03:15:22;14.70;;;10.07;;
12228;SDS011;6177;52.402;9.800;2023-04-21T03:18:13;11.43;;;10.23;;
12228;SDS011;6177;52.402;9.800;2023-04-21T03:21:04;11.00;;;9.90;;
12228;SDS011;6177;52.402;9.800;2023-04-21T03:23:55;10.90;;;9.83;;
12228;SDS011;6177;52.402;9.800;2023-04-21T03:26:46;11.87;;;9.90;;
12228;SDS011;6177;52.402;9.800;2023-04-21T03:29:37;10.83;;;9.83;;
12228;SDS011;6177;52.402;9.800;2023-04-21T03:32:28;11.53;;;10.53;;
12228;SDS011;6177;52.402;9.800;2023-04-21T03:35:19;10.87;;;9.87;;
12228;SDS011;6177;52.402;9.800;2023-04-21T03:38:10;10.93;;;9.93;;
12228;SDS011;6177;52.402;9.800;2023-04-21T03:41:02;12.73;;;11.30;;
12228;SDS011;6177;52.402;9.800;2023-04-21T03:43:53;12.03;;;10.53;;
12228;SDS011;6177;52.402;9.800;2023-04-21T03:46:44;13.10;;;10.73;;
12228;SDS011;6177;52.402;9.800;2023-04-21T03:49:35;11.83;;;9.90;;
12228;SDS011;6177;52.402;9.800;2023-04-21T03:52:26;10.87;;;9.87;;
12228;SDS011;6177;52.402;9.800;2023-04-21T03:55:17;11.83;;;10.70;;
12228;SDS011;6177;52.402;9.800;2023-04-21T03:58:08;11.57;;;10.47;;
12228;SDS011;6177;52.402;9.800;2023-04-21T04:00:59;12.40;;;10.67;;
12228;SDS011;6177;52.402;9.800;2023-04-21T04:03:50;13.10;;;10.37;;
12228;SDS011;6177;52.402;9.800;2023-04-21T04:06:41;11.80;;;10.60;;
12228;SDS011;6177;52.402;9.800;2023-04-21T04:09:32;10.60;;;9.63;;
12228;SDS011;6177;52.402;9.800;2023-04-21T04:12:23;12.10;;;9.97;;
12228;SDS011;6177;52.402;9.800;2023-04-21T04:15:14;13.47;;;9.77;;
12228;SDS011;6177;52.402;9.800;2023-04-21T04:18:05;12.40;;;10.00;;
12228;SDS011;6177;52.402;9.800;2023-04-21T04:20:56;13.37;;;10.33;;
12228;SDS011;6177;52.402;9.800;2023-04-21T04:23:49;13.23;;;10.43;;
12228;SDS011;6177;52.402;9.800;2023-04-21T04:26:40;12.07;;;10.83;;
12228;SDS011;6177;52.402;9.800;2023-04-21T04:29:31;11.47;;;10.37;;
12228;SDS011;6177;52.402;9.800;2023-04-21T04:32:23;10.33;;;9.50;;
12228;SDS011;6177;52.402;9.800;2023-04-21T04:35:17;11.07;;;10.00;;
12228;SDS011;6177;52.402;9.800;2023-04-21T04:38:08;10.80;;;9.77;;
12228;SDS011;6177;52.402;9.800;2023-04-21T04:41:00;12.70;;;9.97;;
12228;SDS011;6177;52.402;9.800;2023-04-21T04:43:51;11.50;;;10.07;;
12228;SDS011;6177;52.402;9.800;2023-04-21T04:46:42;11.20;;;10.10;;
12228;SDS011;6177;52.402;9.800;2023-04-21T04:49:34;11.33;;;9.40;;
12228;SDS011;6177;52.402;9.800;2023-04-21T04:52:25;11.43;;;9.13;;
12228;SDS011;6177;52.402;9.800;2023-04-21T04:55:17;9.40;;;8.50;;
12228;SDS011;6177;52.402;9.800;2023-04-21T04:58:07;10.67;;;9.53;;
12228;SDS011;6177;52.402;9.800;2023-04-21T05:00:58;11.07;;;9.37;;
12228;SDS011;6177;52.402;9.800;2023-04-21T05:04:00;10.43;;;9.50;;
12228;SDS011;6177;52.402;9.800;2023-04-21T05:06:51;10.70;;;9.27;;
12228;SDS011;6177;52.402;9.800;2023-04-21T05:09:42;11.33;;;9.70;;
12228;SDS011;6177;52.402;9.800;2023-04-21T05:12:33;11.20;;;8.93;;
12228;SDS011;6177;52.402;9.800;2023-04-21T05:15:24;10.47;;;8.63;;
12228;SDS011;6177;52.402;9.800;2023-04-21T05:18:14;9.17;;;8.00;;
12228;SDS011;6177;52.402;9.800;2023-04-21T05:21:06;9.30;;;8.37;;
12228;SDS011;6177;52.402;9.800;2023-04-21T05:23:57;10.43;;;7.90;;
12228;SDS011;6177;52.402;9.800;2023-04-21T05:26:48;10.77;;;8.53;;
12228;SDS011;6177;52.402;9.800;2023-04-21T05:29:40;10.93;;;8.90;;
12228;SDS011;6177;52.402;9.800;2023-04-21T05:32:31;8.47;;;7.67;;
12228;SDS011;6177;52.402;9.800;2023-04-21T05:35:21;10.07;;;8.10;;
12228;SDS011;6177;52.402;9.800;2023-04-21T05:38:12;11.60;;;8.23;;
12228;SDS011;6177;52.402;9.800;2023-04-21T05:41:03;10.57;;;8.27;;
12228;SDS011;6177;52.402;9.800;2023-04-21T05:43:54;9.17;;;7.17;;
12228;SDS011;6177;52.402;9.800;2023-04-21T05:46:46;9.37;;;7.87;;
12228;SDS011;6177;52.402;9.800;2023-04-21T05:49:36;10.63;;;7.93;;
12228;SDS011;6177;52.402;9.800;2023-04-21T05:52:27;9.10;;;8.17;;
12228;SDS011;6177;52.402;9.800;2023-04-21T05:55:18;10.50;;;7.73;;
12228;SDS011;6177;52.402;9.800;2023-04-21T05:58:09;8.57;;;7.67;;
12228;SDS011;6177;52.402;9.800;2023-04-21T06:01:01;9.77;;;7.90;;
12228;SDS011;6177;52.402;9.800;2023-04-21T06:03:51;9.37;;;7.80;;
12228;SDS011;6177;52.402;9.800;2023-04-21T06:06:42;13.20;;;8.13;;
12228;SDS011;6177;52.402;9.800;2023-04-21T06:09:34;11.20;;;8.33;;
12228;SDS011;6177;52.402;9.800;2023-04-21T06:12:26;8.97;;;7.43;;
12228;SDS011;6177;52.402;9.800;2023-04-21T06:15:16;8.27;;;7.57;;
12228;SDS011;6177;52.402;9.800;2023-04-21T06:18:08;8.20;;;7.50;;
12228;SDS011;6177;52.402;9.800;2023-04-21T06:20:58;8.33;;;7.33;;
12228;SDS011;6177;52.402;9.800;2023-04-21T06:23:49;8.87;;;7.97;;
12228;SDS011;6177;52.402;9.800;2023-04-21T06:26:40;10.40;;;7.80;;
12228;SDS011;6177;52.402;9.800;2023-04-21T06:29:32;8.97;;;8.13;;
12228;SDS011;6177;52.402;9.800;2023-04-21T06:32:22;10.47;;;7.73;;
12228;SDS011;6177;52.402;9.800;2023-04-21T06:35:14;8.33;;;7.53;;
12228;SDS011;6177;52.402;9.800;2023-04-21T06:38:04;7.20;;;6.70;;
12228;SDS011;6177;52.402;9.800;2023-04-21T06:40:54;7.77;;;6.97;;
12228;SDS011;6177;52.402;9.800;2023-04-21T06:43:45;9.93;;;7.73;;
12228;SDS011;6177;52.402;9.800;2023-04-21T06:46:36;11.53;;;7.23;;
12228;SDS011;6177;52.402;9.800;2023-04-21T06:49:27;9.93;;;6.93;;
12228;SDS011;6177;52.402;9.800;2023-04-21T06:52:18;12.53;;;8.17;;
12228;SDS011;6177;52.402;9.800;2023-04-21T06:55:09;7.77;;;6.40;;
12228;SDS011;6177;52.402;9.800;2023-04-21T06:58:00;8.17;;;7.30;;
12228;SDS011;6177;52.402;9.800;2023-04-21T07:00:51;13.23;;;7.50;;
12228;SDS011;6177;52.402;9.800;2023-04-21T07:03:42;9.33;;;7.20;;
12228;SDS011;6177;52.402;9.800;2023-04-21T07:06:34;8.47;;;7.57;;
12228;SDS011;6177;52.402;9.800;2023-04-21T07:09:24;9.17;;;7.73;;
12228;SDS011;6177;52.402;9.800;2023-04-21T07:12:17;9.33;;;7.30;;
12228;SDS011;6177;52.402;9.800;2023-04-21T07:15:09;8.33;;;7.17;;
12228;SDS011;6177;52.402;9.800;2023-04-21T07:17:59;8.53;;;7.70;;
12228;SDS011;6177;52.402;9.800;2023-04-21T07:20:51;10.13;;;7.67;;
12228;SDS011;6177;52.402;9.800;2023-04-21T07:23:41;9.53;;;7.00;;
12228;SDS011;6177;52.402;9.800;2023-04-21T07:26:33;10.53;;;7.27;;
12228;SDS011;6177;52.402;9.800;2023-04-21T07:29:23;8.20;;;7.33;;
12228;SDS011;6177;52.402;9.800;2023-04-21T07:32:15;11.63;;;8.03;;
12228;SDS011;6177;52.402;9.800;2023-04-21T07:35:06;10.27;;;7.53;;
12228;SDS011;6177;52.402;9.800;2023-04-21T07:37:56;9.60;;;7.17;;
12228;SDS011;6177;52.402;9.800;2023-04-21T07:40:46;11.87;;;7.60;;
12228;SDS011;6177;52.402;9.800;2023-04-21T07:43:38;7.17;;;6.50;;
12228;SDS011;6177;52.402;9.800;2023-04-21T07:46:28;12.33;;;7.30;;
12228;SDS011;6177;52.402;9.800;2023-04-21T07:49:21;8.43;;;6.57;;
12228;SDS011;6177;52.402;9.800;2023-04-21T07:52:11;10.53;;;7.40;;
12228;SDS011;6177;52.402;9.800;2023-04-21T07:55:03;9.17;;;6.97;;
12228;SDS011;6177;52.402;9.800;2023-04-21T07:57:54;10.70;;;8.00;;
12228;SDS011;6177;52.402;9.800;2023-04-21T08:00:45;11.43;;;7.23;;
12228;SDS011;6177;52.402;9.800;2023-04-21T08:03:36;9.27;;;7.67;;
12228;SDS011;6177;52.402;9.800;2023-04-21T08:06:27;8.13;;;6.93;;
12228;SDS011;6177;52.402;9.800;2023-04-21T08:09:18;7.67;;;6.97;;
12228;SDS011;6177;52.402;9.800;2023-04-21T08:12:08;11.10;;;6.70;;
12228;SDS011;6177;52.402;9.800;2023-04-21T08:15:00;11.97;;;6.97;;
12228;SDS011;6177;52.402;9.800;2023-04-21T08:17:54;7.87;;;7.07;;
12228;SDS011;6177;52.402;9.800;2023-04-21T08:20:46;8.10;;;7.37;;
12228;SDS011;6177;52.402;9.800;2023-04-21T08:23:37;10.97;;;6.93;;
12228;SDS011;6177;52.402;9.800;2023-04-21T08:26:27;10.40;;;7.07;;
12228;SDS011;6177;52.402;9.800;2023-04-21T08:29:19;8.07;;;7.03;;
12228;SDS011;6177;52.402;9.800;2023-04-21T08:32:11;10.77;;;7.40;;
12228;SDS011;6177;52.402;9.800;2023-04-21T08:35:01;9.87;;;7.23;;
12228;SDS011;6177;52.402;9.800;2023-04-21T08:37:52;8.97;;;7.47;;
12228;SDS011;6177;52.402;9.800;2023-04-21T08:40:43;10.20;;;7.63;;
12228;SDS011;6177;52.402;9.800;2023-04-21T08:43:34;8.10;;;6.90;;
12228;SDS011;6177;52.402;9.800;2023-04-21T08:46:26;9.27;;;7.00;;
12228;SDS011;6177;52.402;9.800;2023-04-21T08:49:18;9.03;;;6.97;;
12228;SDS011;6177;52.402;9.800;2023-04-21T08:52:11;8.37;;;7.23;;
12228;SDS011;6177;52.402;9.800;2023-04-21T08:55:03;11.10;;;7.20;;
12228;SDS011;6177;52.402;9.800;2023-04-21T08:57:57;9.60;;;6.80;;
12228;SDS011;6177;52.402;9.800;2023-04-21T09:00:48;7.83;;;6.40;;
12228;SDS011;6177;52.402;9.800;2023-04-21T09:03:40;8.43;;;7.13;;
12228;SDS011;6177;52.402;9.800;2023-04-21T09:06:40;10.43;;;7.23;;
12228;SDS011;6177;52.402;9.800;2023-04-21T09:09:50;8.63;;;6.60;;
12228;SDS011;6177;52.402;9.800;2023-04-21T09:12:44;7.90;;;6.67;;
12228;SDS011;6177;52.402;9.800;2023-04-21T09:15:41;8.40;;;5.90;;
12228;SDS011;6177;52.402;9.800;2023-04-21T09:18:33;9.10;;;6.47;;
12228;SDS011;6177;52.402;9.800;2023-04-21T09:21:30;11.70;;;6.70;;
12228;SDS011;6177;52.402;9.800;2023-04-21T09:24:21;6.83;;;6.10;;
12228;SDS011;6177;52.402;9.800;2023-04-21T09:27:16;6.97;;;5.60;;
12228;SDS011;6177;52.402;9.800;2023-04-21T09:30:07;7.17;;;6.20;;
12228;SDS011;6177;52.402;9.800;2023-04-21T09:32:58;12.70;;;6.03;;
12228;SDS011;6177;52.402;9.800;2023-04-21T09:35:48;6.33;;;5.60;;
12228;SDS011;6177;52.402;9.800;2023-04-21T09:38:39;10.30;;;5.67;;
12228;SDS011;6177;52.402;9.800;2023-04-21T09:41:31;6.33;;;5.40;;
12228;SDS011;6177;52.402;9.800;2023-04-21T09:44:23;11.27;;;5.10;;
12228;SDS011;6177;52.402;9.800;2023-04-21T09:47:17;8.27;;;5.03;;
12228;SDS011;6177;52.402;9.800;2023-04-21T09:50:10;9.43;;;5.55;;
12228;SDS011;6177;52.402;9.800;2023-04-21T09:53:01;8.65;;;5.53;;
12228;SDS011;6177;52.402;9.800;2023-04-21T09:55:56;7.28;;;4.50;;
12228;SDS011;6177;52.402;9.800;2023-04-21T09:58:51;5.87;;;4.80;;
12228;SDS011;6177;52.402;9.800;2023-04-21T10:01:44;7.83;;;4.67;;
12228;SDS011;6177;52.402;9.800;2023-04-21T10:04:38;5.97;;;4.00;;
12228;SDS011;6177;52.402;9.800;2023-04-21T10:07:30;7.72;;;3.80;;
12228;SDS011;6177;52.402;9.800;2023-04-21T10:10:23;7.15;;;3.70;;
12228;SDS011;6177;52.402;9.800;2023-04-21T10:13:16;6.25;;;4.50;;
12228;SDS011;6177;52.402;9.800;2023-04-21T10:16:08;7.82;;;4.07;;
12228;SDS011;6177;52.402;9.800;2023-04-21T10:18:59;7.22;;;4.63;;
12228;SDS011;6177;52.402;9.800;2023-04-21T10:21:51;6.45;;;5.13;;
12228;SDS011;6177;52.402;9.800;2023-04-21T10:24:45;6.17;;;4.20;;
12228;SDS011;6177;52.402;9.800;2023-04-21T10:27:41;8.02;;;4.72;;
12228;SDS011;6177;52.402;9.800;2023-04-21T10:30:34;6.70;;;4.47;;
12228;SDS011;6177;52.402;9.800;2023-04-21T10:33:26;9.45;;;3.80;;
12228;SDS011;6177;52.402;9.800;2023-04-21T10:36:22;4.25;;;3.85;;
12228;SDS011;6177;52.402;9.800;2023-04-21T10:42:43;7.63;;;4.20;;
12228;SDS011;6177;52.402;9.800;2023-04-21T10:45:34;6.20;;;3.90;;
12228;SDS011;6177;52.402;9.800;2023-04-21T10:48:27;5.28;;;4.75;;
12228;SDS011;6177;52.402;9.800;2023-04-21T10:51:21;7.72;;;4.45;;
12228;SDS011;6177;52.402;9.800;2023-04-21T10:54:12;4.05;;;3.65;;
12228;SDS011;6177;52.402;9.800;2023-04-21T10:57:05;4.85;;;3.55;;
12228;SDS011;6177;52.402;9.800;2023-04-21T11:00:00;7.18;;;3.45;;
12228;SDS011;6177;52.402;9.800;2023-04-21T11:02:58;5.10;;;2.90;;
12228;SDS011;6177;52.402;9.800;2023-04-21T11:05:51;3.95;;;3.17;;
12228;SDS011;6177;52.402;9.800;2023-04-21T11:12:00;4.50;;;4.07;;
12228;SDS011;6177;52.402;9.800;2023-04-21T11:14:53;8.38;;;4.22;;
12228;SDS011;6177;52.402;9.800;2023-04-21T11:17:44;8.18;;;4.00;;
12228;SDS011;6177;52.402;9.800;2023-04-21T11:20:39;5.72;;;3.55;;
12228;SDS011;6177;52.402;9.800;2023-04-21T11:23:31;7.28;;;3.95;;
12228;SDS011;6177;52.402;9.800;2023-04-21T11:26:29;7.13;;;4.05;;
12228;SDS011;6177;52.402;9.800;2023-04-21T11:29:23;7.30;;;4.13;;
12228;SDS011;6177;52.402;9.800;2023-04-21T11:32:15;5.47;;;3.42;;
12228;SDS011;6177;52.402;9.800;2023-04-21T11:35:05;6.47;;;3.28;;
12228;SDS011;6177;52.402;9.800;2023-04-21T11:37:57;4.22;;;3.03;;
12228;SDS011;6177;52.402;9.800;2023-04-21T11:40:48;5.97;;;3.80;;
12228;SDS011;6177;52.402;9.800;2023-04-21T11:43:39;6.22;;;3.95;;
12228;SDS011;6177;52.402;9.800;2023-04-21T11:46:30;4.63;;;4.20;;
12228;SDS011;6177;52.402;9.800;2023-04-21T11:49:23;4.25;;;3.50;;
12228;SDS011;6177;52.402;9.800;2023-04-21T11:52:22;5.35;;;4.57;;
12228;SDS011;6177;52.402;9.800;2023-04-21T11:55:16;8.00;;;4.47;;
12228;SDS011;6177;52.402;9.800;2023-04-21T11:58:09;5.45;;;4.95;;
12228;SDS011;6177;52.402;9.800;2023-04-21T12:01:06;4.80;;;4.50;;
12228;SDS011;6177;52.402;9.800;2023-04-21T12:03:57;6.75;;;4.53;;
12228;SDS011;6177;52.402;9.800;2023-04-21T12:06:58;7.15;;;4.60;;
12228;SDS011;6177;52.402;9.800;2023-04-21T12:09:50;7.35;;;5.20;;
12228;SDS011;6177;52.402;9.800;2023-04-21T12:12:42;8.38;;;4.50;;
12228;SDS011;6177;52.402;9.800;2023-04-21T12:15:33;6.63;;;4.75;;
12228;SDS011;6177;52.402;9.800;2023-04-21T12:18:26;5.95;;;4.55;;
12228;SDS011;6177;52.402;9.800;2023-04-21T12:21:17;7.80;;;4.30;;
12228;SDS011;6177;52.402;9.800;2023-04-21T12:24:09;6.05;;;5.45;;
12228;SDS011;6177;52.402;9.800;2023-04-21T12:27:00;8.32;;;5.00;;
12228;SDS011;6177;52.402;9.800;2023-04-21T12:29:52;6.55;;;4.75;;
12228;SDS011;6177;52.402;9.800;2023-04-21T12:32:43;5.05;;;4.35;;
12228;SDS011;6177;52.402;9.800;2023-04-21T12:35:33;6.13;;;4.38;;
12228;SDS011;6177;52.402;9.800;2023-04-21T12:38:25;5.22;;;4.40;;
12228;SDS011;6177;52.402;9.800;2023-04-21T12:41:16;5.53;;;5.03;;
12228;SDS011;6177;52.402;9.800;2023-04-21T12:44:07;4.80;;;4.40;;
12228;SDS011;6177;52.402;9.800;2023-04-21T12:46:58;5.40;;;4.90;;
12228;SDS011;6177;52.402;9.800;2023-04-21T12:49:49;5.93;;;5.05;;
12228;SDS011;6177;52.402;9.800;2023-04-21T12:52:40;6.75;;;5.35;;
12228;SDS011;6177;52.402;9.800;2023-04-21T12:55:31;4.90;;;3.92;;
12228;SDS011;6177;52.402;9.800;2023-04-21T12:58:23;4.13;;;3.83;;
12228;SDS011;6177;52.402;9.800;2023-04-21T13:01:14;4.00;;;3.63;;
12228;SDS011;6177;52.402;9.800;2023-04-21T13:04:06;5.35;;;4.30;;
12228;SDS011;6177;52.402;9.800;2023-04-21T13:06:56;4.38;;;4.00;;
12228;SDS011;6177;52.402;9.800;2023-04-21T13:09:48;8.18;;;4.07;;
12228;SDS011;6177;52.402;9.800;2023-04-21T13:12:39;4.43;;;3.70;;
12228;SDS011;6177;52.402;9.800;2023-04-21T13:15:30;4.05;;;3.70;;
12228;SDS011;6177;52.402;9.800;2023-04-21T13:18:22;5.82;;;4.20;;
12228;SDS011;6177;52.402;9.800;2023-04-21T13:21:13;3.67;;;3.40;;
12228;SDS011;6177;52.402;9.800;2023-04-21T13:24:03;4.47;;;3.72;;
12228;SDS011;6177;52.402;9.800;2023-04-21T13:26:54;4.85;;;3.88;;
12228;SDS011;6177;52.402;9.800;2023-04-21T13:29:47;4.82;;;4.43;;
12228;SDS011;6177;52.402;9.800;2023-04-21T13:32:39;4.25;;;3.30;;
12228;SDS011;6177;52.402;9.800;2023-04-21T13:35:30;4.43;;;4.03;;
12228;SDS011;6177;52.402;9.800;2023-04-21T13:38:22;3.65;;;3.40;;
12228;SDS011;6177;52.402;9.800;2023-04-21T13:41:13;4.43;;;3.50;;
12228;SDS011;6177;52.402;9.800;2023-04-21T13:44:04;5.22;;;3.33;;
12228;SDS011;6177;52.402;9.800;2023-04-21T13:46:54;5.32;;;3.90;;
12228;SDS011;6177;52.402;9.800;2023-04-21T13:49:47;3.67;;;3.47;;
12228;SDS011;6177;52.402;9.800;2023-04-21T13:52:39;5.07;;;3.80;;
12228;SDS011;6177;52.402;9.800;2023-04-21T13:55:29;4.93;;;3.80;;
12228;SDS011;6177;52.402;9.800;2023-04-21T13:58:21;5.07;;;3.78;;
12228;SDS011;6177;52.402;9.800;2023-04-21T14:01:12;3.83;;;3.63;;
12228;SDS011;6177;52.402;9.800;2023-04-21T14:04:03;4.20;;;3.50;;
12228;SDS011;6177;52.402;9.800;2023-04-21T14:06:54;3.53;;;3.38;;
12228;SDS011;6177;52.402;9.800;2023-04-21T14:09:46;3.17;;;3.08;;
12228;SDS011;6177;52.402;9.800;2023-04-21T14:12:37;4.25;;;3.40;;
12228;SDS011;6177;52.402;9.800;2023-04-21T14:15:28;3.13;;;2.92;;
12228;SDS011;6177;52.402;9.800;2023-04-21T14:18:19;3.75;;;2.90;;
12228;SDS011;6177;52.402;9.800;2023-04-21T14:21:10;7.18;;;2.90;;
12228;SDS011;6177;52.402;9.800;2023-04-21T14:24:01;2.95;;;2.80;;
12228;SDS011;6177;52.402;9.800;2023-04-21T14:26:52;4.00;;;2.83;;
12228;SDS011;6177;52.402;9.800;2023-04-21T14:29:43;5.57;;;3.38;;
12228;SDS011;6177;52.402;9.800;2023-04-21T14:32:34;3.00;;;2.90;;
12228;SDS011;6177;52.402;9.800;2023-04-21T14:35:25;3.47;;;3.17;;
12228;SDS011;6177;52.402;9.800;2023-04-21T14:38:16;4.43;;;3.50;;
12228;SDS011;6177;52.402;9.800;2023-04-21T14:41:07;5.32;;;3.67;;
12228;SDS011;6177;52.402;9.800;2023-04-21T14:43:58;3.47;;;3.03;;
12228;SDS011;6177;52.402;9.800;2023-04-21T14:46:50;3.30;;;2.85;;
12228;SDS011;6177;52.402;9.800;2023-04-21T14:49:41;4.90;;;3.03;;
12228;SDS011;6177;52.402;9.800;2023-04-21T14:52:33;4.18;;;3.63;;
12228;SDS011;6177;52.402;9.800;2023-04-21T14:55:24;4.82;;;3.22;;
12228;SDS011;6177;52.402;9.800;2023-04-21T14:58:14;3.58;;;3.35;;
12228;SDS011;6177;52.402;9.800;2023-04-21T15:01:05;4.60;;;3.38;;
12228;SDS011;6177;52.402;9.800;2023-04-21T15:03:56;4.05;;;3.17;;
12228;SDS011;6177;52.402;9.800;2023-04-21T15:06:48;3.20;;;2.97;;
12228;SDS011;6177;52.402;9.800;2023-04-21T15:09:40;4.10;;;2.75;;
12228;SDS011;6177;52.402;9.800;2023-04-21T15:12:35;4.95;;;2.92;;
12228;SDS011;6177;52.402;9.800;2023-04-21T15:15:26;6.40;;;3.05;;
12228;SDS011;6177;52.402;9.800;2023-04-21T15:18:17;2.97;;;2.65;;
12228;SDS011;6177;52.402;9.800;2023-04-21T15:21:08;5.07;;;2.90;;
12228;SDS011;6177;52.402;9.800;2023-04-21T15:23:59;3.88;;;3.03;;
12228;SDS011;6177;52.402;9.800;2023-04-21T15:26:49;4.75;;;3.28;;
12228;SDS011;6177;52.402;9.800;2023-04-21T15:29:41;5.57;;;3.30;;
12228;SDS011;6177;52.402;9.800;2023-04-21T15:32:32;3.85;;;3.13;;
12228;SDS011;6177;52.402;9.800;2023-04-21T15:35:23;4.28;;;2.83;;
12228;SDS011;6177;52.402;9.800;2023-04-21T15:38:14;5.90;;;3.50;;
12228;SDS011;6177;52.402;9.800;2023-04-21T15:41:05;5.97;;;3.58;;
12228;SDS011;6177;52.402;9.800;2023-04-21T15:43:56;4.43;;;3.38;;
12228;SDS011;6177;52.402;9.800;2023-04-21T15:46:48;3.72;;;2.80;;
12228;SDS011;6177;52.402;9.800;2023-04-21T15:49:40;3.53;;;3.22;;
12228;SDS011;6177;52.402;9.800;2023-04-21T15:52:31;3.67;;;3.28;;
12228;SDS011;6177;52.402;9.800;2023-04-21T15:55:25;3.17;;;2.90;;
12228;SDS011;6177;52.402;9.800;2023-04-21T15:58:17;3.00;;;2.70;;
12228;SDS011;6177;52.402;9.800;2023-04-21T16:01:08;2.85;;;2.63;;
12228;SDS011;6177;52.402;9.800;2023-04-21T16:03:59;3.83;;;3.53;;
12228;SDS011;6177;52.402;9.800;2023-04-21T16:06:50;3.25;;;2.88;;
12228;SDS011;6177;52.402;9.800;2023-04-21T16:09:41;3.30;;;3.10;;
12228;SDS011;6177;52.402;9.800;2023-04-21T16:12:32;3.75;;;2.78;;
12228;SDS011;6177;52.402;9.800;2023-04-21T16:15:23;3.15;;;2.78;;
12228;SDS011;6177;52.402;9.800;2023-04-21T16:18:14;4.00;;;3.58;;
12228;SDS011;6177;52.402;9.800;2023-04-21T16:21:05;3.83;;;3.55;;
12228;SDS011;6177;52.402;9.800;2023-04-21T16:23:55;3.58;;;3.33;;
12228;SDS011;6177;52.402;9.800;2023-04-21T16:26:46;2.97;;;2.88;;
12228;SDS011;6177;52.402;9.800;2023-04-21T16:29:37;6.70;;;3.53;;
12228;SDS011;6177;52.402;9.800;2023-04-21T16:32:28;3.75;;;3.17;;
12228;SDS011;6177;52.402;9.800;2023-04-21T16:35:19;3.10;;;2.80;;
12228;SDS011;6177;52.402;9.800;2023-04-21T16:38:10;3.25;;;3.03;;
12228;SDS011;6177;52.402;9.800;2023-04-21T16:41:01;3.55;;;3.25;;
12228;SDS011;6177;52.402;9.800;2023-04-21T16:43:52;4.75;;;3.38;;
12228;SDS011;6177;52.402;9.800;2023-04-21T16:46:42;5.38;;;3.10;;
12228;SDS011;6177;52.402;9.800;2023-04-21T16:49:34;3.63;;;3.35;;
12228;SDS011;6177;52.402;9.800;2023-04-21T16:52:25;3.72;;;3.25;;
12228;SDS011;6177;52.402;9.800;2023-04-21T16:55:17;5.00;;;3.50;;
12228;SDS011;6177;52.402;9.800;2023-04-21T16:58:08;6.72;;;4.03;;
12228;SDS011;6177;52.402;9.800;2023-04-21T17:00:59;3.42;;;3.33;;
12228;SDS011;6177;52.402;9.800;2023-04-21T17:03:50;3.97;;;3.50;;
12228;SDS011;6177;52.402;9.800;2023-04-21T17:06:41;7.53;;;4.13;;
12228;SDS011;6177;52.402;9.800;2023-04-21T17:09:32;6.38;;;4.00;;
12228;SDS011;6177;52.402;9.800;2023-04-21T17:12:23;3.50;;;3.25;;
12228;SDS011;6177;52.402;9.800;2023-04-21T17:15:14;5.35;;;3.50;;
12228;SDS011;6177;52.402;9.800;2023-04-21T17:18:05;3.58;;;3.28;;
12228;SDS011;6177;52.402;9.800;2023-04-21T17:20:55;4.75;;;3.95;;
12228;SDS011;6177;52.402;9.800;2023-04-21T17:23:46;3.97;;;3.55;;
12228;SDS011;6177;52.402;9.800;2023-04-21T17:26:38;5.45;;;3.65;;